createdAt,value
2019-04-06T00:00:42.455Z,11.09
2019-04-06T00:03:14.540Z,11.06
2019-04-06T00:05:46.621Z,11.05
2019-04-06T00:08:18.619Z,11.04
2019-04-06T00:10:50.588Z,11.06
2019-04-06T00:13:22.649Z,11.04
2019-04-06T00:15:54.694Z,11.00
2019-04-06T00:18:26.786Z,10.98
2019-04-06T00:20:58.762Z,10.97
2019-04-06T00:23:31.149Z,10.90
2019-04-06T00:26:03.206Z,10.90
2019-04-06T00:28:35.283Z,10.86
2019-04-06T00:31:26.745Z,10.83
2019-04-06T00:33:59.027Z,10.78
2019-04-06T00:36:31.371Z,10.76
2019-04-06T00:39:05.087Z,10.73
2019-04-06T00:41:38.905Z,10.69
2019-04-06T00:44:11.282Z,10.66
2019-04-06T00:46:45.150Z,10.62
2019-04-06T00:49:17.198Z,10.60
2019-04-06T00:51:49.210Z,10.57
2019-04-06T00:54:21.193Z,10.54
2019-04-06T00:56:53.186Z,10.51
2019-04-06T00:59:25.158Z,10.48
2019-04-06T01:01:57.171Z,10.45
2019-04-06T01:04:29.145Z,10.44
2019-04-06T01:07:01.118Z,10.45
2019-04-06T01:09:33.105Z,10.43
2019-04-06T01:12:05.055Z,10.43
2019-04-06T01:14:37.082Z,10.41
2019-04-06T01:17:09.991Z,10.40
2019-04-06T01:19:41.941Z,10.39
2019-04-06T01:22:14.024Z,10.35
2019-04-06T01:24:45.973Z,10.37
2019-04-06T01:27:18.147Z,10.38
2019-04-06T01:29:50.425Z,10.39
2019-04-06T01:32:22.666Z,10.39
2019-04-06T01:34:54.629Z,10.41
2019-04-06T01:37:26.624Z,10.42
2019-04-06T01:39:58.615Z,10.40
2019-04-06T01:42:30.607Z,10.40
2019-04-06T01:45:02.565Z,10.41
2019-04-06T01:47:34.764Z,10.39
2019-04-06T01:50:07.501Z,10.38
2019-04-06T01:52:39.448Z,10.35
2019-04-06T01:55:11.626Z,10.36
2019-04-06T01:57:43.621Z,10.32
2019-04-06T02:00:16.107Z,10.33
2019-04-06T02:02:50.536Z,10.30
2019-04-06T02:05:22.498Z,10.30
2019-04-06T02:07:54.590Z,10.28
2019-04-06T02:10:26.641Z,10.29
2019-04-06T02:12:58.654Z,10.28
2019-04-06T02:15:31.029Z,10.27
2019-04-06T02:18:03.115Z,10.26
2019-04-06T02:20:35.471Z,10.23
2019-04-06T02:23:07.806Z,10.23
2019-04-06T02:25:40.346Z,10.22
2019-04-06T02:28:12.390Z,10.23
2019-04-06T02:30:55.025Z,10.22
2019-04-06T02:33:39.385Z,10.20
2019-04-06T02:36:45.837Z,10.19
2019-04-06T02:39:42.769Z,10.17
2019-04-06T02:42:21.221Z,10.14
2019-04-06T02:44:53.331Z,10.10
2019-04-06T02:47:25.427Z,10.09
2019-04-06T02:49:57.537Z,10.06
2019-04-06T02:52:29.752Z,10.05
2019-04-06T02:55:01.853Z,10.02
2019-04-06T02:57:33.832Z,10.06
2019-04-06T03:00:07.848Z,10.03
2019-04-06T03:02:40.422Z,10.01
2019-04-06T03:05:12.578Z,10.02
2019-04-06T03:07:44.627Z,10.02
2019-04-06T03:10:16.625Z,10.01
2019-04-06T03:12:48.732Z,10.01
2019-04-06T03:15:20.908Z,9.97
2019-04-06T03:17:52.953Z,9.94
2019-04-06T03:20:25.050Z,9.93
2019-04-06T03:22:57.001Z,9.94
2019-04-06T03:25:29.175Z,9.90
2019-04-06T03:28:01.342Z,9.88
2019-04-06T03:30:33.315Z,9.85
2019-04-06T03:33:05.282Z,9.84
2019-04-06T03:35:37.746Z,9.84
2019-04-06T03:38:10.515Z,9.81
2019-04-06T03:40:42.581Z,9.77
2019-04-06T03:43:14.617Z,9.75
2019-04-06T03:45:46.592Z,9.73
2019-04-06T03:48:18.574Z,9.73
2019-04-06T03:50:50.665Z,9.71
2019-04-06T03:53:22.801Z,9.69
2019-04-06T03:55:54.910Z,9.71
2019-04-06T03:58:26.979Z,9.72
2019-04-06T04:00:58.986Z,9.76
2019-04-06T04:03:31.083Z,9.75
2019-04-06T04:06:03.210Z,9.78
2019-04-06T04:08:35.199Z,9.79
2019-04-06T04:11:07.143Z,9.77
2019-04-06T04:13:39.135Z,9.74
2019-04-06T04:16:11.245Z,9.71
2019-04-06T04:18:43.233Z,9.69
2019-04-06T04:21:15.175Z,9.69
2019-04-06T04:23:47.215Z,9.69
2019-04-06T04:26:19.194Z,9.69
2019-04-06T04:28:51.260Z,9.74
2019-04-06T04:31:23.223Z,9.74
2019-04-06T04:33:55.312Z,9.74
2019-04-06T04:36:27.295Z,9.74
2019-04-06T04:38:59.300Z,9.76
2019-04-06T04:41:31.319Z,9.79
2019-04-06T04:44:03.369Z,9.80
2019-04-06T04:46:35.319Z,9.83
2019-04-06T04:49:07.283Z,9.82
2019-04-06T04:51:39.294Z,9.84
2019-04-06T04:54:12.246Z,9.87
2019-04-06T04:56:44.188Z,9.88
2019-04-06T04:59:16.167Z,9.90
2019-04-06T05:01:48.218Z,9.95
2019-04-06T05:04:20.609Z,9.99
2019-04-06T05:06:52.871Z,10.01
2019-04-06T05:09:24.956Z,9.98
2019-04-06T05:11:56.965Z,9.98
2019-04-06T05:15:00.827Z,9.99
2019-04-06T05:17:32.801Z,10.01
2019-04-06T05:20:05.622Z,10.01
2019-04-06T05:22:37.753Z,10.07
2019-04-06T05:25:10.105Z,10.08
2019-04-06T05:27:51.268Z,10.11
2019-04-06T05:30:16.461Z,10.17
2019-04-06T05:32:48.494Z,10.19
2019-04-06T05:35:20.755Z,10.23
2019-04-06T05:37:52.832Z,10.27
2019-04-06T05:40:24.972Z,10.37
2019-04-06T05:42:57.004Z,10.40
2019-04-06T05:45:29.197Z,10.46
2019-04-06T05:48:01.434Z,10.38
2019-04-06T05:50:33.405Z,10.37
2019-04-06T05:53:05.708Z,10.33
2019-04-06T05:55:37.654Z,10.28
2019-04-06T05:58:10.848Z,10.28
2019-04-06T06:00:43.411Z,10.35
2019-04-06T06:03:15.590Z,10.39
2019-04-06T06:05:47.661Z,10.56
2019-04-06T06:08:20.306Z,10.73
2019-04-06T06:10:52.487Z,10.89
2019-04-06T06:13:24.483Z,10.95
2019-04-06T06:15:56.513Z,10.89
2019-04-06T06:18:28.546Z,10.96
2019-04-06T06:21:01.062Z,10.99
2019-04-06T06:23:33.193Z,11.07
2019-04-06T06:26:05.438Z,11.08
2019-04-06T06:28:37.667Z,11.09
2019-04-06T06:31:10.473Z,11.04
2019-04-06T06:33:42.439Z,11.04
2019-04-06T06:36:14.533Z,11.00
2019-04-06T06:38:46.625Z,11.02
2019-04-06T06:41:18.734Z,11.21
2019-04-06T06:43:50.761Z,11.38
2019-04-06T06:46:22.865Z,11.49
2019-04-06T06:48:54.943Z,11.66
2019-04-06T06:51:27.031Z,11.94
2019-04-06T06:54:00.817Z,12.17
2019-04-06T06:56:32.858Z,12.48
2019-04-06T06:59:04.953Z,12.81
2019-04-06T07:01:37.036Z,13.30
2019-04-06T07:04:09.311Z,13.83
2019-04-06T07:06:43.916Z,14.09
2019-04-06T07:09:15.947Z,14.24
2019-04-06T07:11:48.543Z,14.40
2019-04-06T07:14:20.512Z,14.62
2019-04-06T07:16:52.580Z,14.73
2019-04-06T07:19:24.537Z,14.39
2019-04-06T07:21:56.557Z,14.20
2019-04-06T07:24:28.511Z,13.89
2019-04-06T07:27:00.550Z,13.64
2019-04-06T07:29:32.556Z,13.60
2019-04-06T07:32:04.536Z,13.41
2019-04-06T07:34:36.546Z,12.99
2019-04-06T07:37:08.799Z,12.90
2019-04-06T07:39:41.196Z,13.05
2019-04-06T07:42:13.179Z,13.19
2019-04-06T07:44:45.213Z,13.44
2019-04-06T07:47:17.227Z,13.71
2019-04-06T07:49:49.167Z,14.15
2019-04-06T07:52:21.338Z,14.39
2019-04-06T07:54:53.354Z,14.55
2019-04-06T07:57:25.445Z,15.12
2019-04-06T07:59:57.451Z,16.21
2019-04-06T08:02:29.499Z,16.95
2019-04-06T08:05:01.519Z,17.39
2019-04-06T08:07:33.470Z,17.37
2019-04-06T08:10:06.064Z,17.31
2019-04-06T08:12:38.089Z,17.29
2019-04-06T08:15:11.052Z,17.43
2019-04-06T08:17:44.090Z,17.65
2019-04-06T08:20:17.595Z,17.72
2019-04-06T08:22:49.909Z,17.09
2019-04-06T08:25:21.918Z,16.67
2019-04-06T08:27:54.063Z,16.87
2019-04-06T08:30:26.276Z,17.36
2019-04-06T08:32:58.715Z,17.44
2019-04-06T08:35:31.089Z,17.90
2019-04-06T08:38:03.179Z,18.40
2019-04-06T08:40:35.416Z,18.06
2019-04-06T08:43:07.516Z,17.99
2019-04-06T08:45:39.554Z,17.90
2019-04-06T08:48:12.518Z,18.02
2019-04-06T08:50:44.771Z,17.71
2019-04-06T08:53:16.854Z,17.74
2019-04-06T08:55:48.942Z,19.33
2019-04-06T08:58:21.503Z,22.55
2019-04-06T09:00:53.705Z,27.68
2019-04-06T09:03:25.894Z,25.20
2019-04-06T09:05:57.945Z,23.89
2019-04-06T09:08:30.530Z,24.09
2019-04-06T09:11:02.656Z,23.86
2019-04-06T09:13:34.665Z,24.15
2019-04-06T09:16:06.770Z,24.47
2019-04-06T09:18:38.762Z,25.45
2019-04-06T09:21:11.165Z,26.53
2019-04-06T09:23:43.255Z,29.01
2019-04-06T09:26:15.297Z,30.46
2019-04-06T09:28:47.399Z,32.87
2019-04-06T09:31:19.481Z,35.11
2019-04-06T09:33:51.457Z,38.67
2019-04-06T09:36:23.592Z,42.37
2019-04-06T09:38:56.313Z,45.87
2019-04-06T09:41:29.916Z,47.86
2019-04-06T09:44:02.006Z,50.41
2019-04-06T09:46:41.865Z,49.87
2019-04-06T09:49:32.686Z,46.00
2019-04-06T09:52:22.401Z,44.40
2019-04-06T09:55:13.235Z,39.68
2019-04-06T09:57:58.615Z,33.97
2019-04-06T10:00:43.306Z,31.06
2019-04-06T10:03:34.399Z,32.28
2019-04-06T10:06:16.792Z,33.81
2019-04-06T10:09:26.162Z,33.46
2019-04-06T10:12:17.829Z,32.73
2019-04-06T10:15:03.565Z,32.88
2019-04-06T10:17:54.763Z,32.38
2019-04-06T10:20:53.427Z,31.83
2019-04-06T10:24:02.445Z,32.23
2019-04-06T10:26:56.253Z,33.75
2019-04-06T10:29:58.765Z,34.58
2019-04-06T10:32:37.159Z,35.73
2019-04-06T10:35:21.034Z,37.32
2019-04-06T10:38:14.075Z,36.57
2019-04-06T10:41:08.133Z,35.10
2019-04-06T10:44:08.650Z,34.25
2019-04-06T10:46:58.635Z,35.38
2019-04-06T10:50:07.608Z,35.84
2019-04-06T10:53:02.192Z,33.91
2019-04-06T10:55:57.595Z,32.80
2019-04-06T10:58:54.923Z,32.97
2019-04-06T11:01:49.058Z,33.73
2019-04-06T11:04:34.970Z,33.74
2019-04-06T11:07:24.617Z,32.44
2019-04-06T11:10:24.387Z,31.82
2019-04-06T11:13:13.726Z,31.58
2019-04-06T11:15:53.586Z,30.55
2019-04-06T11:18:42.980Z,29.54
2019-04-06T11:21:33.814Z,28.69
2019-04-06T11:24:23.489Z,28.49
2019-04-06T11:27:11.896Z,29.25
2019-04-06T11:30:13.112Z,30.63
2019-04-06T11:33:07.174Z,31.49
2019-04-06T11:35:54.098Z,31.23
2019-04-06T11:38:45.081Z,30.50
2019-04-06T11:41:28.153Z,29.56
2019-04-06T11:44:07.793Z,28.32
2019-04-06T11:46:57.444Z,27.26
2019-04-06T11:49:44.349Z,26.63
2019-04-06T11:52:34.034Z,25.54
2019-04-06T11:55:18.901Z,24.33
2019-04-06T11:58:10.325Z,23.63
2019-04-06T12:01:03.929Z,22.89
2019-04-06T12:03:54.757Z,22.24
2019-04-06T12:06:37.191Z,22.11
2019-04-06T12:09:28.243Z,22.12
2019-04-06T12:12:18.555Z,21.88
2019-04-06T12:15:04.930Z,21.69
2019-04-06T12:17:45.548Z,21.80
2019-04-06T12:20:34.596Z,21.76
2019-04-06T12:23:24.079Z,21.71
2019-04-06T12:26:09.445Z,21.32
2019-04-06T12:28:50.402Z,20.70
2019-04-06T12:31:44.692Z,20.03
2019-04-06T12:34:27.374Z,19.08
2019-04-06T12:37:24.771Z,18.25
2019-04-06T12:40:15.323Z,17.63
2019-04-06T12:43:18.149Z,17.26
2019-04-06T12:46:12.478Z,16.93
2019-04-06T12:49:03.389Z,16.33
2019-04-06T12:51:57.317Z,15.79
2019-04-06T12:54:57.845Z,15.47
2019-04-06T12:57:49.573Z,15.09
2019-04-06T13:00:49.303Z,14.08
2019-04-06T13:03:31.343Z,13.39
2019-04-06T13:06:37.849Z,13.10
2019-04-06T13:09:44.504Z,12.75
2019-04-06T13:12:44.537Z,12.49
2019-04-06T13:15:38.689Z,12.39
2019-04-06T13:18:27.058Z,12.39
2019-04-06T13:21:25.265Z,12.49
2019-04-06T13:24:08.031Z,12.66
2019-04-06T13:26:56.755Z,12.93
2019-04-06T13:29:42.302Z,13.09
2019-04-06T13:32:36.521Z,13.12
2019-04-06T13:35:14.051Z,13.16
2019-04-06T13:37:59.743Z,13.26
2019-04-06T13:40:50.531Z,13.27
2019-04-06T13:43:41.510Z,13.35
2019-04-06T13:46:28.594Z,13.41
2019-04-06T13:49:26.541Z,13.38
2019-04-06T13:52:17.382Z,13.51
2019-04-06T13:55:08.503Z,13.51
2019-04-06T13:58:02.903Z,13.40
2019-04-06T14:01:13.771Z,13.26
2019-04-06T14:03:54.138Z,13.13
2019-04-06T14:06:51.364Z,13.09
2019-04-06T14:09:48.292Z,13.11
2019-04-06T14:12:38.361Z,13.10
2019-04-06T14:15:47.947Z,13.08
2019-04-06T14:18:41.919Z,13.07
2019-04-06T14:21:31.402Z,13.03
2019-04-06T14:24:28.491Z,12.84
2019-04-06T14:27:20.010Z,12.63
2019-04-06T14:30:22.797Z,12.41
2019-04-06T14:33:12.228Z,12.30
2019-04-06T14:36:04.489Z,12.41
2019-04-06T14:38:57.958Z,12.47
2019-04-06T14:41:47.742Z,12.49
2019-04-06T14:44:31.842Z,12.52
2019-04-06T14:47:31.923Z,12.50
2019-04-06T14:50:24.226Z,12.61
2019-04-06T14:53:18.234Z,12.77
2019-04-06T14:56:21.493Z,12.85
2019-04-06T14:59:24.707Z,12.89
2019-04-06T15:02:14.176Z,12.96
2019-04-06T15:05:14.430Z,13.09
2019-04-06T15:08:05.629Z,13.21
2019-04-06T15:11:05.379Z,13.25
2019-04-06T15:13:56.318Z,13.27
2019-04-06T15:16:47.559Z,13.30
2019-04-06T15:19:41.759Z,13.30
2019-04-06T15:22:31.526Z,13.39
2019-04-06T15:25:12.553Z,13.47
2019-04-06T15:28:03.377Z,13.50
2019-04-06T15:30:42.518Z,13.51
2019-04-06T15:33:26.904Z,13.49
2019-04-06T15:36:24.396Z,13.59
2019-04-06T15:39:15.281Z,13.65
2019-04-06T15:42:15.153Z,13.73
2019-04-06T15:45:12.315Z,13.85
2019-04-06T15:48:15.525Z,13.96
2019-04-06T15:51:09.569Z,13.92
2019-04-06T15:54:06.548Z,13.77
2019-04-06T15:56:46.303Z,13.64
2019-04-06T15:59:24.631Z,13.47
2019-04-06T16:02:33.981Z,13.29
2019-04-06T16:05:16.883Z,13.23
2019-04-06T16:07:59.549Z,13.10
2019-04-06T16:10:50.359Z,12.97
2019-04-06T16:13:56.900Z,13.01
2019-04-06T16:16:50.818Z,12.97
2019-04-06T16:19:50.857Z,12.83
2019-04-06T16:22:38.376Z,12.77
2019-04-06T16:25:36.225Z,12.73
2019-04-06T16:28:45.481Z,12.48
2019-04-06T16:31:36.509Z,12.44
2019-04-06T16:34:30.048Z,12.42
2019-04-06T16:37:18.527Z,12.36
2019-04-06T16:40:03.219Z,12.25
2019-04-06T16:42:56.881Z,11.90
2019-04-06T16:45:54.981Z,11.67
2019-04-06T16:48:42.510Z,11.60
2019-04-06T16:51:31.805Z,11.47
2019-04-06T16:54:23.253Z,11.32
2019-04-06T16:57:12.935Z,11.26
2019-04-06T16:59:54.249Z,11.28
2019-04-06T17:02:44.777Z,11.25
2019-04-06T17:05:36.172Z,11.28
2019-04-06T17:08:27.107Z,11.36
2019-04-06T17:11:26.947Z,11.43
2019-04-06T17:14:11.538Z,11.41
2019-04-06T17:17:05.167Z,11.43
2019-04-06T17:19:56.243Z,11.43
2019-04-06T17:22:37.176Z,11.47
2019-04-06T17:25:28.229Z,11.33
2019-04-06T17:28:14.672Z,11.19
2019-04-06T17:31:11.807Z,11.01
2019-04-06T17:33:51.808Z,10.87
2019-04-06T17:36:42.871Z,10.70
2019-04-06T17:39:37.026Z,10.51
2019-04-06T17:42:18.923Z,10.40
2019-04-06T17:45:08.877Z,10.33
2019-04-06T17:47:58.952Z,10.29
2019-04-06T17:50:42.593Z,10.27
2019-04-06T17:53:41.158Z,10.25
2019-04-06T17:56:31.975Z,10.21
2019-04-06T17:59:21.547Z,10.22
2019-04-06T18:02:21.444Z,10.24
2019-04-06T18:05:15.244Z,10.23
2019-04-06T18:08:09.096Z,10.23
2019-04-06T18:10:57.171Z,10.23
2019-04-06T18:13:49.825Z,10.21
2019-04-06T18:16:25.448Z,10.18
2019-04-06T18:18:57.740Z,10.20
2019-04-06T18:21:30.270Z,10.17
2019-04-06T18:24:02.285Z,10.18
2019-04-06T18:26:34.310Z,10.16
2019-04-06T18:29:06.467Z,10.14
2019-04-06T18:31:57.525Z,10.14
2019-04-06T18:34:29.596Z,10.17
2019-04-06T18:37:20.522Z,10.17
2019-04-06T18:39:53.754Z,10.18
2019-04-06T18:42:26.106Z,10.22
2019-04-06T18:44:58.119Z,10.23
2019-04-06T18:47:30.476Z,10.22
2019-04-06T18:50:02.711Z,10.25
2019-04-06T18:52:35.022Z,10.21
2019-04-06T18:55:07.850Z,10.20
2019-04-06T18:57:40.277Z,10.17
2019-04-06T19:00:13.422Z,10.16
2019-04-06T19:02:46.169Z,10.16
2019-04-06T19:05:18.638Z,10.17
2019-04-06T19:07:50.906Z,10.16
2019-04-06T19:10:23.232Z,10.12
2019-04-06T19:12:55.398Z,10.09
2019-04-06T19:15:27.536Z,10.04
2019-04-06T19:18:00.156Z,10.00
2019-04-06T19:20:32.338Z,9.95
2019-04-06T19:23:04.753Z,9.90
2019-04-06T19:25:37.889Z,9.88
2019-04-06T19:28:10.941Z,9.85
2019-04-06T19:30:44.427Z,9.76
2019-04-06T19:33:23.338Z,9.76
2019-04-06T19:35:50.675Z,9.74
2019-04-06T19:38:22.732Z,9.68
2019-04-06T19:40:55.209Z,9.68
2019-04-06T19:43:27.768Z,9.68
2019-04-06T19:46:00.021Z,9.76
2019-04-06T19:48:33.872Z,9.79
2019-04-06T19:51:06.186Z,9.74
2019-04-06T19:53:39.063Z,9.67
2019-04-06T19:56:11.225Z,9.69
2019-04-06T19:58:43.811Z,9.71
2019-04-06T20:01:15.989Z,9.66
2019-04-06T20:03:48.215Z,9.71
2019-04-06T20:06:20.562Z,9.75
2019-04-06T20:08:52.854Z,9.82
2019-04-06T20:11:25.555Z,9.74
2019-04-06T20:13:57.643Z,9.71
2019-04-06T20:16:29.613Z,9.68
2019-04-06T20:19:01.644Z,9.71
2019-04-06T20:21:34.112Z,9.70
2019-04-06T20:24:06.846Z,9.69
2019-04-06T20:26:39.886Z,9.71
2019-04-06T20:29:12.683Z,9.76
2019-04-06T20:31:44.897Z,9.80
2019-04-06T20:34:16.865Z,9.84
2019-04-06T20:36:49.065Z,9.82
2019-04-06T20:39:21.102Z,9.79
2019-04-06T20:41:53.206Z,9.77
2019-04-06T20:44:25.178Z,9.66
2019-04-06T20:46:57.161Z,9.53
2019-04-06T20:49:29.116Z,9.45
2019-04-06T20:52:01.167Z,9.35
2019-04-06T20:54:33.239Z,9.29
2019-04-06T20:57:05.402Z,9.29
2019-04-06T20:59:37.516Z,9.24
2019-04-06T21:02:09.450Z,9.13
2019-04-06T21:04:41.422Z,9.17
2019-04-06T21:07:13.413Z,9.23
2019-04-06T21:09:45.399Z,9.27
2019-04-06T21:12:18.184Z,9.28
2019-04-06T21:14:52.814Z,9.30
2019-04-06T21:17:24.119Z,9.35
2019-04-06T21:19:56.134Z,9.38
2019-04-06T21:22:28.083Z,9.41
2019-04-06T21:25:00.572Z,9.45
2019-04-06T21:27:32.638Z,9.38
2019-04-06T21:30:05.452Z,9.41
2019-04-06T21:32:37.420Z,9.44
2019-04-06T21:35:09.497Z,9.52
2019-04-06T21:37:41.596Z,9.57
2019-04-06T21:40:15.902Z,9.66
2019-04-06T21:42:48.445Z,9.72
2019-04-06T21:45:20.730Z,9.75
2019-04-06T21:47:53.073Z,9.80
2019-04-06T21:50:25.640Z,9.81
2019-04-06T21:52:57.709Z,9.85
2019-04-06T21:55:30.058Z,9.90
2019-04-06T21:58:03.241Z,9.92
2019-04-06T22:00:52.419Z,9.79
2019-04-06T22:03:24.453Z,9.73
2019-04-06T22:05:56.757Z,9.63
2019-04-06T22:08:29.479Z,9.60
2019-04-06T22:11:01.822Z,9.59
2019-04-06T22:13:33.884Z,9.65
2019-04-06T22:16:06.287Z,9.73
2019-04-06T22:18:38.372Z,9.63
2019-04-06T22:21:10.618Z,9.55
2019-04-06T22:23:44.946Z,9.47
2019-04-06T22:26:17.074Z,9.42
2019-04-06T22:28:49.232Z,9.31
2019-04-06T22:31:21.363Z,9.25
2019-04-06T22:33:55.626Z,9.22
2019-04-06T22:36:27.716Z,9.22
2019-04-06T22:39:00.629Z,9.20
2019-04-06T22:41:32.773Z,9.15
2019-04-06T22:44:05.647Z,9.06
2019-04-06T22:46:38.087Z,8.96
2019-04-06T22:49:10.343Z,8.82
2019-04-06T22:51:43.497Z,8.70
2019-04-06T22:54:15.507Z,8.56
2019-04-06T22:56:47.447Z,8.43
2019-04-06T22:59:19.509Z,8.30
2019-04-06T23:01:51.708Z,8.31
2019-04-06T23:04:47.710Z,8.32
2019-04-06T23:07:16.782Z,8.33
2019-04-06T23:09:49.368Z,8.31
2019-04-06T23:12:21.337Z,8.24
2019-04-06T23:14:53.792Z,8.26
2019-04-06T23:17:26.098Z,8.25
2019-04-06T23:19:58.163Z,8.21
2019-04-06T23:22:30.392Z,8.18
2019-04-06T23:25:02.762Z,8.18
2019-04-06T23:27:35.354Z,8.18
2019-04-06T23:30:08.820Z,8.18
2019-04-06T23:32:41.154Z,8.18
2019-04-06T23:35:13.298Z,8.19
2019-04-06T23:37:45.839Z,8.30
2019-04-06T23:40:17.917Z,8.41
2019-04-06T23:42:50.479Z,8.54
2019-04-06T23:45:23.427Z,8.68
2019-04-06T23:47:55.900Z,8.80
2019-04-06T23:50:28.201Z,8.90
2019-04-06T23:53:00.722Z,8.95
2019-04-06T23:55:35.496Z,9.00
2019-04-06T23:58:07.538Z,9.00
